sensor_id;sensor_type;location;lat;lon;timestamp;pressure;altitude;pressure_sealevel;temperature;humidity
11808;BME280;5961;42.640;23.380;2023-03-11T00:00:33;92274.19;;;12.88;100.00
11808;BME280;5961;42.640;23.380;2023-03-11T00:03:01;92271.94;;;12.87;100.00
11808;BME280;5961;42.640;23.380;2023-03-11T00:05:30;92262.78;;;12.88;100.00
11808;BME280;5961;42.640;23.380;2023-03-11T00:07:58;92280.38;;;12.68;100.00
11808;BME280;5961;42.640;23.380;2023-03-11T00:10:28;92301.72;;;12.64;100.00
11808;BME280;5961;42.640;23.380;2023-03-11T00:12:56;92305.59;;;12.38;100.00
11808;BME280;5961;42.640;23.380;2023-03-11T00:15:23;92274.81;;;12.23;100.00
11808;BME280;5961;42.640;23.380;2023-03-11T00:17:50;92253.56;;;12.05;100.00
11808;BME280;5961;42.640;23.380;2023-03-11T00:20:20;92280.94;;;12.06;100.00
11808;BME280;5961;42.640;23.380;2023-03-11T00:22:47;92231.19;;;11.78;100.00
11808;BME280;5961;42.640;23.380;2023-03-11T00:25:15;92263.84;;;11.86;100.00
11808;BME280;5961;42.640;23.380;2023-03-11T00:27:42;92280.59;;;11.86;100.00
11808;BME280;5961;42.640;23.380;2023-03-11T00:30:12;92287.03;;;11.82;100.00
11808;BME280;5961;42.640;23.380;2023-03-11T00:32:39;92255.50;;;11.80;100.00
11808;BME280;5961;42.640;23.380;2023-03-11T00:35:07;92263.09;;;11.75;100.00
11808;BME280;5961;42.640;23.380;2023-03-11T00:37:34;92252.47;;;11.75;100.00
11808;BME280;5961;42.640;23.380;2023-03-11T00:40:01;92263.09;;;11.75;100.00
11808;BME280;5961;42.640;23.380;2023-03-11T00:42:29;92249.00;;;11.64;100.00
11808;BME280;5961;42.640;23.380;2023-03-11T00:44:56;92259.28;;;11.54;100.00
11808;BME280;5961;42.640;23.380;2023-03-11T00:47:24;92271.44;;;11.55;100.00
11808;BME280;5961;42.640;23.380;2023-03-11T00:49:51;92269.13;;;11.36;100.00
11808;BME280;5961;42.640;23.380;2023-03-11T00:52:17;92244.84;;;11.38;100.00
11808;BME280;5961;42.640;23.380;2023-03-11T00:54:44;92244.84;;;11.34;100.00
11808;BME280;5961;42.640;23.380;2023-03-11T00:57:11;92239.16;;;11.32;100.00
11808;BME280;5961;42.640;23.380;2023-03-11T00:59:38;92223.94;;;11.40;100.00
11808;BME280;5961;42.640;23.380;2023-03-11T01:02:05;92212.16;;;11.44;100.00
11808;BME280;5961;42.640;23.380;2023-03-11T01:04:33;92198.50;;;11.39;100.00
11808;BME280;5961;42.640;23.380;2023-03-11T01:06:59;92210.66;;;11.50;100.00
11808;BME280;5961;42.640;23.380;2023-03-11T01:09:26;92197.72;;;11.60;100.00
11808;BME280;5961;42.640;23.380;2023-03-11T01:11:53;92202.66;;;11.65;100.00
11808;BME280;5961;42.640;23.380;2023-03-11T01:14:20;92193.91;;;11.64;100.00
11808;BME280;5961;42.640;23.380;2023-03-11T01:16:47;92220.53;;;11.71;100.00
11808;BME280;5961;42.640;23.380;2023-03-11T01:19:13;92193.91;;;11.68;100.00
11808;BME280;5961;42.640;23.380;2023-03-11T01:21:41;92192.41;;;11.63;100.00
11808;BME280;5961;42.640;23.380;2023-03-11T01:24:08;92179.84;;;11.67;100.00
11808;BME280;5961;42.640;23.380;2023-03-11T01:26:35;92190.09;;;11.76;100.00
11808;BME280;5961;42.640;23.380;2023-03-11T01:29:02;92182.13;;;11.76;100.00
11808;BME280;5961;42.640;23.380;2023-03-11T01:31:28;92185.53;;;11.76;100.00
11808;BME280;5961;42.640;23.380;2023-03-11T01:33:55;92172.63;;;11.78;100.00
11808;BME280;5961;42.640;23.380;2023-03-11T01:36:22;92163.53;;;11.72;100.00
11808;BME280;5961;42.640;23.380;2023-03-11T01:38:50;92181.38;;;11.75;100.00
11808;BME280;5961;42.640;23.380;2023-03-11T01:41:16;92130.03;;;11.68;100.00
11808;BME280;5961;42.640;23.380;2023-03-11T01:43:49;92114.84;;;11.57;100.00
11808;BME280;5961;42.640;23.380;2023-03-11T01:46:21;92124.72;;;11.68;100.00
11808;BME280;5961;42.640;23.380;2023-03-11T01:48:49;92120.53;;;11.67;100.00
11808;BME280;5961;42.640;23.380;2023-03-11T01:51:20;92118.63;;;11.67;100.00
11808;BME280;5961;42.640;23.380;2023-03-11T01:53:52;92108.41;;;11.58;100.00
11808;BME280;5961;42.640;23.380;2023-03-11T01:56:20;92117.91;;;11.60;100.00
11808;BME280;5961;42.640;23.380;2023-03-11T01:58:50;92121.69;;;11.58;100.00
11808;BME280;5961;42.640;23.380;2023-03-11T02:01:21;92131.22;;;11.45;100.00
11808;BME280;5961;42.640;23.380;2023-03-11T02:03:49;92148.34;;;11.44;100.00
11808;BME280;5961;42.640;23.380;2023-03-11T02:06:20;92141.13;;;11.41;100.00
11808;BME280;5961;42.640;23.380;2023-03-11T02:08:48;92171.13;;;11.45;100.00
11808;BME280;5961;42.640;23.380;2023-03-11T02:11:19;92172.66;;;11.46;100.00
11808;BME280;5961;42.640;23.380;2023-03-11T02:13:48;92168.09;;;11.43;100.00
11808;BME280;5961;42.640;23.380;2023-03-11T02:16:15;92173.41;;;11.43;100.00
11808;BME280;5961;42.640;23.380;2023-03-11T02:18:42;92191.25;;;11.46;100.00
11808;BME280;5961;42.640;23.380;2023-03-11T02:21:17;92149.50;;;11.15;100.00
11808;BME280;5961;42.640;23.380;2023-03-11T02:23:51;92191.63;;;11.48;100.00
11808;BME280;5961;42.640;23.380;2023-03-11T02:26:26;92179.50;;;11.37;100.00
11808;BME280;5961;42.640;23.380;2023-03-11T02:28:56;92064.84;;;10.50;100.00
11808;BME280;5961;42.640;23.380;2023-03-11T02:31:24;92196.56;;;11.39;100.00
11808;BME280;5961;42.640;23.380;2023-03-11T02:33:52;92191.66;;;11.38;100.00
11808;BME280;5961;42.640;23.380;2023-03-11T02:36:31;92200.41;;;11.42;100.00
11808;BME280;5961;42.640;23.380;2023-03-11T02:38:57;92190.13;;;11.33;100.00
11808;BME280;5961;42.640;23.380;2023-03-11T02:41:24;92164.69;;;11.18;100.00
11808;BME280;5961;42.640;23.380;2023-03-11T02:43:52;92196.22;;;11.37;100.00
11808;BME280;5961;42.640;23.380;2023-03-11T02:46:20;92206.47;;;11.35;100.00
11808;BME280;5961;42.640;23.380;2023-03-11T02:48:47;92190.88;;;11.34;100.00
11808;BME280;5961;42.640;23.380;2023-03-11T02:51:15;92215.22;;;11.29;100.00
11808;BME280;5961;42.640;23.380;2023-03-11T02:53:45;92208.38;;;11.14;100.00
11808;BME280;5961;42.640;23.380;2023-03-11T02:56:13;92226.59;;;11.15;100.00
11808;BME280;5961;42.640;23.380;2023-03-11T02:58:39;92185.53;;;10.88;100.00
11808;BME280;5961;42.640;23.380;2023-03-11T03:01:06;92214.41;;;11.00;100.00
11808;BME280;5961;42.640;23.380;2023-03-11T03:03:34;92207.22;;;10.90;100.00
11808;BME280;5961;42.640;23.380;2023-03-11T03:06:01;92198.47;;;10.93;100.00
11808;BME280;5961;42.640;23.380;2023-03-11T03:08:27;92196.59;;;10.93;100.00
11808;BME280;5961;42.640;23.380;2023-03-11T03:10:54;92210.63;;;11.01;100.00
11808;BME280;5961;42.640;23.380;2023-03-11T03:13:21;92202.28;;;10.95;100.00
11808;BME280;5961;42.640;23.380;2023-03-11T03:15:47;92197.34;;;11.05;100.00
11808;BME280;5961;42.640;23.380;2023-03-11T03:18:14;92200.00;;;11.01;100.00
11808;BME280;5961;42.640;23.380;2023-03-11T03:20:42;92200.75;;;10.94;100.00
11808;BME280;5961;42.640;23.380;2023-03-11T03:23:09;92209.09;;;11.00;100.00
11808;BME280;5961;42.640;23.380;2023-03-11T03:25:36;92172.28;;;10.81;100.00
11808;BME280;5961;42.640;23.380;2023-03-11T03:28:03;92186.31;;;10.92;100.00
11808;BME280;5961;42.640;23.380;2023-03-11T03:30:31;92193.91;;;10.97;100.00
11808;BME280;5961;42.640;23.380;2023-03-11T03:32:58;92206.06;;;11.01;100.00
11808;BME280;5961;42.640;23.380;2023-03-11T03:35:25;92199.25;;;10.93;100.00
11808;BME280;5961;42.640;23.380;2023-03-11T03:37:53;92213.28;;;11.01;100.00
11808;BME280;5961;42.640;23.380;2023-03-11T03:40:20;92203.78;;;11.00;100.00
11808;BME280;5961;42.640;23.380;2023-03-11T03:42:47;92196.94;;;11.06;100.00
11808;BME280;5961;42.640;23.380;2023-03-11T03:45:14;92204.19;;;11.02;100.00
11808;BME280;5961;42.640;23.380;2023-03-11T03:47:40;92181.38;;;10.94;100.00
11808;BME280;5961;42.640;23.380;2023-03-11T03:50:09;92181.78;;;10.96;100.00
11808;BME280;5961;42.640;23.380;2023-03-11T03:52:36;92193.94;;;11.08;100.00
11808;BME280;5961;42.640;23.380;2023-03-11T03:55:05;92201.16;;;11.11;100.00
11808;BME280;5961;42.640;23.380;2023-03-11T03:57:32;92190.53;;;11.14;100.00
11808;BME280;5961;42.640;23.380;2023-03-11T03:59:59;92181.03;;;11.17;100.00
11808;BME280;5961;42.640;23.380;2023-03-11T04:02:26;92190.91;;;11.23;100.00
11808;BME280;5961;42.640;23.380;2023-03-11T04:04:52;92198.88;;;11.34;100.00
11808;BME280;5961;42.640;23.380;2023-03-11T04:07:19;92207.59;;;11.34;100.00
11808;BME280;5961;42.640;23.380;2023-03-11T04:09:46;92201.53;;;11.34;100.00
11808;BME280;5961;42.640;23.380;2023-03-11T04:12:15;92207.97;;;11.43;100.00
11808;BME280;5961;42.640;23.380;2023-03-11T04:14:42;92197.72;;;11.45;100.00
11808;BME280;5961;42.640;23.380;2023-03-11T04:17:10;92187.88;;;11.39;100.00
11808;BME280;5961;42.640;23.380;2023-03-11T04:19:37;92213.31;;;11.54;100.00
11808;BME280;5961;42.640;23.380;2023-03-11T04:22:04;92209.88;;;11.53;100.00
11808;BME280;5961;42.640;23.380;2023-03-11T04:24:31;92209.13;;;11.56;100.00
11808;BME280;5961;42.640;23.380;2023-03-11T04:26:58;92214.06;;;11.62;100.00
11808;BME280;5961;42.640;23.380;2023-03-11T04:29:26;92209.88;;;11.64;100.00
11808;BME280;5961;42.640;23.380;2023-03-11T04:31:52;92218.97;;;11.67;100.00
11808;BME280;5961;42.640;23.380;2023-03-11T04:34:19;92214.81;;;11.73;100.00
11808;BME280;5961;42.640;23.380;2023-03-11T04:36:46;92209.50;;;11.73;100.00
11808;BME280;5961;42.640;23.380;2023-03-11T04:39:13;92235.72;;;11.78;100.00
11808;BME280;5961;42.640;23.380;2023-03-11T04:41:40;92209.50;;;11.80;100.00
11808;BME280;5961;42.640;23.380;2023-03-11T04:44:07;92211.03;;;11.84;100.00
11808;BME280;5961;42.640;23.380;2023-03-11T04:46:35;92198.44;;;11.85;100.00
11808;BME280;5961;42.640;23.380;2023-03-11T04:49:02;92205.28;;;11.89;100.00
11808;BME280;5961;42.640;23.380;2023-03-11T04:51:29;92206.06;;;11.93;100.00
11808;BME280;5961;42.640;23.380;2023-03-11T04:53:55;92203.00;;;11.95;98.73
11808;BME280;5961;42.640;23.380;2023-03-11T04:56:22;92202.22;;;11.91;99.76
11808;BME280;5961;42.640;23.380;2023-03-11T04:58:49;92203.00;;;11.88;99.72
11808;BME280;5961;42.640;23.380;2023-03-11T05:01:16;92223.53;;;11.98;97.35
11808;BME280;5961;42.640;23.380;2023-03-11T05:03:44;92227.72;;;11.95;89.83
11808;BME280;5961;42.640;23.380;2023-03-11T05:06:11;92237.19;;;12.00;91.85
11808;BME280;5961;42.640;23.380;2023-03-11T05:08:38;92246.72;;;11.94;80.97
11808;BME280;5961;42.640;23.380;2023-03-11T05:11:04;92246.34;;;11.95;80.51
11808;BME280;5961;42.640;23.380;2023-03-11T05:13:31;92257.75;;;11.96;81.15
11808;BME280;5961;42.640;23.380;2023-03-11T05:15:58;92252.03;;;11.94;82.31
11808;BME280;5961;42.640;23.380;2023-03-11T05:18:25;92247.13;;;11.96;82.64
11808;BME280;5961;42.640;23.380;2023-03-11T05:20:53;92240.25;;;11.88;84.48
11808;BME280;5961;42.640;23.380;2023-03-11T05:23:20;92249.38;;;11.97;82.08
11808;BME280;5961;42.640;23.380;2023-03-11T05:25:46;92268.38;;;12.03;80.22
11808;BME280;5961;42.640;23.380;2023-03-11T05:28:13;92278.25;;;12.09;80.29
11808;BME280;5961;42.640;23.380;2023-03-11T05:30:40;92274.88;;;12.02;79.33
11808;BME280;5961;42.640;23.380;2023-03-11T05:33:06;92272.19;;;12.02;77.77
11808;BME280;5961;42.640;23.380;2023-03-11T05:35:33;92281.31;;;12.01;77.67
11808;BME280;5961;42.640;23.380;2023-03-11T05:38:01;92282.09;;;12.05;77.08
11808;BME280;5961;42.640;23.380;2023-03-11T05:40:28;92290.06;;;12.08;76.46
11808;BME280;5961;42.640;23.380;2023-03-11T05:42:55;92288.19;;;11.95;76.22
11808;BME280;5961;42.640;23.380;2023-03-11T05:45:21;92289.31;;;11.97;76.85
11808;BME280;5961;42.640;23.380;2023-03-11T05:47:48;92294.25;;;11.95;76.84
11808;BME280;5961;42.640;23.380;2023-03-11T05:50:15;92301.47;;;11.91;77.49
11808;BME280;5961;42.640;23.380;2023-03-11T05:52:41;92307.97;;;11.90;76.93
11808;BME280;5961;42.640;23.380;2023-03-11T05:55:10;92309.09;;;11.89;77.29
11808;BME280;5961;42.640;23.380;2023-03-11T05:57:36;92309.47;;;11.88;77.74
11808;BME280;5961;42.640;23.380;2023-03-11T06:00:04;92311.38;;;11.91;78.18
11808;BME280;5961;42.640;23.380;2023-03-11T06:02:31;92329.63;;;11.92;78.61
11808;BME280;5961;42.640;23.380;2023-03-11T06:04:58;92317.44;;;11.88;78.49
11808;BME280;5961;42.640;23.380;2023-03-11T06:07:25;92318.22;;;11.95;78.82
11808;BME280;5961;42.640;23.380;2023-03-11T06:09:51;92312.91;;;11.99;79.21
11808;BME280;5961;42.640;23.380;2023-03-11T06:12:19;92295.03;;;11.85;78.81
11808;BME280;5961;42.640;23.380;2023-03-11T06:14:46;92310.25;;;12.02;78.87
11808;BME280;5961;42.640;23.380;2023-03-11T06:17:13;92319.34;;;12.08;79.61
11808;BME280;5961;42.640;23.380;2023-03-11T06:19:40;92319.72;;;12.07;79.45
11808;BME280;5961;42.640;23.380;2023-03-11T06:22:06;92320.13;;;12.02;79.53
11808;BME280;5961;42.640;23.380;2023-03-11T06:24:33;92296.94;;;11.78;79.67
11808;BME280;5961;42.640;23.380;2023-03-11T06:27:00;92333.44;;;11.95;79.86
11808;BME280;5961;42.640;23.380;2023-03-11T06:29:28;92326.59;;;11.87;79.12
11808;BME280;5961;42.640;23.380;2023-03-11T06:31:55;92331.53;;;11.85;80.43
11808;BME280;5961;42.640;23.380;2023-03-11T06:34:22;92332.69;;;11.84;80.96
11808;BME280;5961;42.640;23.380;2023-03-11T06:36:49;92312.53;;;11.83;81.16
11808;BME280;5961;42.640;23.380;2023-03-11T06:39:15;92328.50;;;11.90;81.00
11808;BME280;5961;42.640;23.380;2023-03-11T06:41:42;92323.94;;;11.90;81.30
11808;BME280;5961;42.640;23.380;2023-03-11T06:44:11;92326.19;;;11.88;81.49
11808;BME280;5961;42.640;23.380;2023-03-11T06:46:39;92322.41;;;11.93;80.02
11808;BME280;5961;42.640;23.380;2023-03-11T06:49:06;92288.19;;;11.74;80.24
11808;BME280;5961;42.640;23.380;2023-03-11T06:51:33;92338.38;;;12.03;80.61
11808;BME280;5961;42.640;23.380;2023-03-11T06:53:59;92314.03;;;12.01;79.30
11808;BME280;5961;42.640;23.380;2023-03-11T06:56:26;92318.19;;;12.06;79.93
11808;BME280;5961;42.640;23.380;2023-03-11T06:58:53;92315.53;;;12.06;78.67
11808;BME280;5961;42.640;23.380;2023-03-11T07:01:21;92317.06;;;12.07;80.00
11808;BME280;5961;42.640;23.380;2023-03-11T07:03:50;92282.13;;;11.84;80.09
11808;BME280;5961;42.640;23.380;2023-03-11T07:06:19;92322.03;;;12.08;78.78
11808;BME280;5961;42.640;23.380;2023-03-11T07:08:47;92332.28;;;12.10;79.22
11808;BME280;5961;42.640;23.380;2023-03-11T07:11:16;92335.69;;;12.03;79.43
11808;BME280;5961;42.640;23.380;2023-03-11T07:13:44;92270.28;;;11.64;79.46
11808;BME280;5961;42.640;23.380;2023-03-11T07:16:12;92333.03;;;12.00;79.46
11808;BME280;5961;42.640;23.380;2023-03-11T07:18:40;92328.47;;;12.00;79.82
11808;BME280;5961;42.640;23.380;2023-03-11T07:21:11;92309.13;;;11.75;79.02
11808;BME280;5961;42.640;23.380;2023-03-11T07:23:39;92293.50;;;11.91;80.14
11808;BME280;5961;42.640;23.380;2023-03-11T07:26:07;92316.31;;;11.96;79.86
11808;BME280;5961;42.640;23.380;2023-03-11T07:28:34;92310.22;;;12.06;80.60
11808;BME280;5961;42.640;23.380;2023-03-11T07:31:06;92280.97;;;11.74;78.44
11808;BME280;5961;42.640;23.380;2023-03-11T07:33:33;92313.66;;;11.99;78.28
11808;BME280;5961;42.640;23.380;2023-03-11T07:36:04;92305.28;;;12.04;78.20
11808;BME280;5961;42.640;23.380;2023-03-11T07:38:33;92307.94;;;12.08;77.70
11808;BME280;5961;42.640;23.380;2023-03-11T07:41:00;92301.47;;;12.13;76.71
11808;BME280;5961;42.640;23.380;2023-03-11T07:43:27;92296.13;;;12.16;75.77
11808;BME280;5961;42.640;23.380;2023-03-11T07:46:01;92299.56;;;12.13;75.39
11808;BME280;5961;42.640;23.380;2023-03-11T07:48:28;92291.94;;;12.19;74.39
11808;BME280;5961;42.640;23.380;2023-03-11T07:50:59;92288.91;;;12.13;75.43
11808;BME280;5961;42.640;23.380;2023-03-11T07:53:26;92275.22;;;12.11;74.39
11808;BME280;5961;42.640;23.380;2023-03-11T07:55:56;92278.63;;;12.15;75.70
11808;BME280;5961;42.640;23.380;2023-03-11T07:58:23;92275.19;;;12.18;75.99
11808;BME280;5961;42.640;23.380;2023-03-11T08:00:51;92266.84;;;12.23;73.32
11808;BME280;5961;42.640;23.380;2023-03-11T08:03:18;92275.97;;;12.26;73.53
11808;BME280;5961;42.640;23.380;2023-03-11T08:05:45;92263.00;;;12.31;73.22
11808;BME280;5961;42.640;23.380;2023-03-11T08:08:12;92259.94;;;12.40;73.67
11808;BME280;5961;42.640;23.380;2023-03-11T08:10:39;92252.69;;;12.40;72.97
11808;BME280;5961;42.640;23.380;2023-03-11T08:13:07;92253.03;;;12.49;72.17
11808;BME280;5961;42.640;23.380;2023-03-11T08:15:35;92243.88;;;12.57;74.10
11808;BME280;5961;42.640;23.380;2023-03-11T08:18:02;92237.72;;;12.75;78.24
11808;BME280;5961;42.640;23.380;2023-03-11T08:20:29;92221.38;;;12.69;72.76
11808;BME280;5961;42.640;23.380;2023-03-11T08:22:56;92215.19;;;12.83;71.67
11808;BME280;5961;42.640;23.380;2023-03-11T08:25:22;92247.53;;;12.92;69.52
11808;BME280;5961;42.640;23.380;2023-03-11T08:27:49;92226.94;;;12.96;65.63
11808;BME280;5961;42.640;23.380;2023-03-11T08:30:18;92232.63;;;12.98;65.96
11808;BME280;5961;42.640;23.380;2023-03-11T08:32:44;92193.09;;;12.89;67.11
11808;BME280;5961;42.640;23.380;2023-03-11T08:35:11;92230.31;;;13.10;65.33
11808;BME280;5961;42.640;23.380;2023-03-11T08:37:38;92226.09;;;13.13;64.53
11808;BME280;5961;42.640;23.380;2023-03-11T08:40:05;92244.75;;;13.13;65.35
11808;BME280;5961;42.640;23.380;2023-03-11T08:42:34;92239.06;;;13.11;65.24
11808;BME280;5961;42.640;23.380;2023-03-11T08:45:01;92225.31;;;13.16;65.95
11808;BME280;5961;42.640;23.380;2023-03-11T08:47:32;92224.56;;;13.15;65.66
11808;BME280;5961;42.640;23.380;2023-03-11T08:49:59;92205.06;;;13.22;65.01
11808;BME280;5961;42.640;23.380;2023-03-11T08:52:26;92204.72;;;13.20;64.72
11808;BME280;5961;42.640;23.380;2023-03-11T08:54:52;92197.84;;;13.23;64.10
11808;BME280;5961;42.640;23.380;2023-03-11T08:57:19;92192.50;;;13.23;64.21
11808;BME280;5961;42.640;23.380;2023-03-11T08:59:46;92177.25;;;13.23;64.67
11808;BME280;5961;42.640;23.380;2023-03-11T09:02:12;92211.53;;;13.25;64.66
11808;BME280;5961;42.640;23.380;2023-03-11T09:04:41;92216.06;;;13.31;64.59
11808;BME280;5961;42.640;23.380;2023-03-11T09:07:09;92191.66;;;13.33;64.49
11808;BME280;5961;42.640;23.380;2023-03-11T09:09:37;92198.81;;;13.43;64.26
11808;BME280;5961;42.640;23.380;2023-03-11T09:12:04;92216.06;;;13.31;63.71
11808;BME280;5961;42.640;23.380;2023-03-11T09:14:32;92187.00;;;13.44;63.56
11808;BME280;5961;42.640;23.380;2023-03-11T09:16:59;92190.00;;;13.49;63.83
11808;BME280;5961;42.640;23.380;2023-03-11T09:19:26;92178.25;;;13.43;65.05
11808;BME280;5961;42.640;23.380;2023-03-11T09:21:54;92213.59;;;13.54;63.85
11808;BME280;5961;42.640;23.380;2023-03-11T09:24:21;92207.56;;;13.47;64.37
11808;BME280;5961;42.640;23.380;2023-03-11T09:26:48;92195.47;;;13.35;65.25
11808;BME280;5961;42.640;23.380;2023-03-11T09:29:14;92155.78;;;13.41;65.76
11808;BME280;5961;42.640;23.380;2023-03-11T09:31:41;92158.41;;;13.44;65.75
11808;BME280;5961;42.640;23.380;2023-03-11T09:34:09;92169.13;;;13.41;66.11
11808;BME280;5961;42.640;23.380;2023-03-11T09:36:36;92176.34;;;13.44;65.92
11808;BME280;5961;42.640;23.380;2023-03-11T09:39:04;92163.00;;;13.44;66.84
11808;BME280;5961;42.640;23.380;2023-03-11T09:41:35;92168.00;;;13.38;66.82
11808;BME280;5961;42.640;23.380;2023-03-11T09:44:12;92161.03;;;13.48;66.25
11808;BME280;5961;42.640;23.380;2023-03-11T09:47:02;92165.56;;;13.54;67.84
11808;BME280;5961;42.640;23.380;2023-03-11T09:49:41;92149.56;;;13.51;67.08
11808;BME280;5961;42.640;23.380;2023-03-11T09:52:12;92174.97;;;13.66;67.98
11808;BME280;5961;42.640;23.380;2023-03-11T09:54:42;92149.88;;;13.60;67.48
11808;BME280;5961;42.640;23.380;2023-03-11T09:57:14;92141.72;;;13.78;64.14
11808;BME280;5961;42.640;23.380;2023-03-11T09:59:43;92172.50;;;13.86;64.45
11808;BME280;5961;42.640;23.380;2023-03-11T10:02:14;92172.06;;;13.91;62.78
11808;BME280;5961;42.640;23.380;2023-03-11T10:04:45;92165.25;;;13.86;62.85
11808;BME280;5961;42.640;23.380;2023-03-11T10:07:17;92197.88;;;14.04;61.44
11808;BME280;5961;42.640;23.380;2023-03-11T10:09:51;92188.75;;;14.02;60.79
11808;BME280;5961;42.640;23.380;2023-03-11T10:12:25;92168.47;;;14.08;60.56
11808;BME280;5961;42.640;23.380;2023-03-11T10:15:03;92156.88;;;14.18;62.09
11808;BME280;5961;42.640;23.380;2023-03-11T10:17:51;92186.16;;;14.28;58.89
11808;BME280;5961;42.640;23.380;2023-03-11T10:20:21;92155.16;;;14.04;58.83
11808;BME280;5961;42.640;23.380;2023-03-11T10:23:00;92180.41;;;14.30;58.95
11808;BME280;5961;42.640;23.380;2023-03-11T10:25:40;92170.13;;;14.28;59.95
11808;BME280;5961;42.640;23.380;2023-03-11T10:28:11;92207.97;;;14.23;58.99
11808;BME280;5961;42.640;23.380;2023-03-11T10:30:42;92195.25;;;14.38;59.34
11808;BME280;5961;42.640;23.380;2023-03-11T10:33:18;92176.13;;;14.40;59.26
11808;BME280;5961;42.640;23.380;2023-03-11T10:35:50;92171.47;;;14.47;59.29
11808;BME280;5961;42.640;23.380;2023-03-11T10:38:18;92177.16;;;14.49;57.32
11808;BME280;5961;42.640;23.380;2023-03-11T10:40:50;92164.56;;;14.50;57.30
11808;BME280;5961;42.640;23.380;2023-03-11T10:43:26;92170.56;;;14.57;56.09
11808;BME280;5961;42.640;23.380;2023-03-11T10:45:53;92130.94;;;14.18;55.37
11808;BME280;5961;42.640;23.380;2023-03-11T10:48:20;92168.31;;;14.56;55.78
11808;BME280;5961;42.640;23.380;2023-03-11T10:50:54;92159.97;;;14.50;56.10
11808;BME280;5961;42.640;23.380;2023-03-11T10:53:24;92137.44;;;14.17;56.77
11808;BME280;5961;42.640;23.380;2023-03-11T10:55:54;92207.09;;;14.37;56.19
11808;BME280;5961;42.640;23.380;2023-03-11T10:58:23;92202.88;;;14.36;56.23
11808;BME280;5961;42.640;23.380;2023-03-11T11:01:01;92185.44;;;14.24;57.55
11808;BME280;5961;42.640;23.380;2023-03-11T11:03:29;92287.88;;;14.11;59.45
11808;BME280;5961;42.640;23.380;2023-03-11T11:05:58;92211.41;;;13.87;62.28
11808;BME280;5961;42.640;23.380;2023-03-11T11:08:28;92187.88;;;13.74;65.31
11808;BME280;5961;42.640;23.380;2023-03-11T11:10:58;92190.66;;;13.60;65.01
11808;BME280;5961;42.640;23.380;2023-03-11T11:13:26;92179.56;;;13.65;64.75
11808;BME280;5961;42.640;23.380;2023-03-11T11:15:56;92171.16;;;13.67;65.03
11808;BME280;5961;42.640;23.380;2023-03-11T11:18:26;92190.13;;;13.80;65.16
11808;BME280;5961;42.640;23.380;2023-03-11T11:20:59;92173.34;;;13.75;64.37
11808;BME280;5961;42.640;23.380;2023-03-11T11:23:31;92165.25;;;13.86;64.53
11808;BME280;5961;42.640;23.380;2023-03-11T11:26:02;92160.69;;;13.87;63.29
11808;BME280;5961;42.640;23.380;2023-03-11T11:28:29;92161.75;;;13.93;63.12
11808;BME280;5961;42.640;23.380;2023-03-11T11:30:58;92164.44;;;13.93;62.88
11808;BME280;5961;42.640;23.380;2023-03-11T11:33:27;92164.44;;;13.93;62.47
11808;BME280;5961;42.640;23.380;2023-03-11T11:35:56;92150.03;;;13.83;63.32
11808;BME280;5961;42.640;23.380;2023-03-11T11:38:26;92150.00;;;13.87;64.94
11808;BME280;5961;42.640;23.380;2023-03-11T11:40:55;92149.91;;;13.94;63.52
11808;BME280;5961;42.640;23.380;2023-03-11T11:43:40;92118.00;;;13.83;64.21
11808;BME280;5961;42.640;23.380;2023-03-11T11:46:17;92121.31;;;13.94;65.03
11808;BME280;5961;42.640;23.380;2023-03-11T11:48:49;92127.69;;;14.04;66.10
11808;BME280;5961;42.640;23.380;2023-03-11T11:51:20;92110.13;;;14.03;66.33
11808;BME280;5961;42.640;23.380;2023-03-11T11:53:51;92109.13;;;14.23;66.20
11808;BME280;5961;42.640;23.380;2023-03-11T11:56:22;92092.53;;;14.39;66.08
11808;BME280;5961;42.640;23.380;2023-03-11T11:58:51;92079.34;;;14.55;65.72
11808;BME280;5961;42.640;23.380;2023-03-11T12:01:25;92104.97;;;14.79;64.93
11808;BME280;5961;42.640;23.380;2023-03-11T12:04:21;92102.06;;;14.94;62.58
11808;BME280;5961;42.640;23.380;2023-03-11T12:07:01;92090.56;;;14.97;59.70
11808;BME280;5961;42.640;23.380;2023-03-11T12:09:34;92136.88;;;15.17;57.68
11808;BME280;5961;42.640;23.380;2023-03-11T12:12:10;92110.41;;;15.22;53.78
11808;BME280;5961;42.640;23.380;2023-03-11T12:14:46;92115.34;;;15.24;53.14
11808;BME280;5961;42.640;23.380;2023-03-11T12:17:16;92136.56;;;15.38;53.13
11808;BME280;5961;42.640;23.380;2023-03-11T12:19:49;92132.56;;;15.50;52.49
11808;BME280;5961;42.640;23.380;2023-03-11T12:22:42;92120.53;;;15.34;51.58
11808;BME280;5961;42.640;23.380;2023-03-11T12:25:31;92133.97;;;15.31;52.10
11808;BME280;5961;42.640;23.380;2023-03-11T12:28:05;92129.78;;;15.30;53.13
11808;BME280;5961;42.640;23.380;2023-03-11T12:30:43;92127.81;;;15.11;52.98
11808;BME280;5961;42.640;23.380;2023-03-11T12:33:15;92122.81;;;15.13;53.49
11808;BME280;5961;42.640;23.380;2023-03-11T12:35:47;92104.03;;;15.16;54.11
11808;BME280;5961;42.640;23.380;2023-03-11T12:38:17;92105.41;;;15.24;54.76
11808;BME280;5961;42.640;23.380;2023-03-11T12:40:58;92066.72;;;14.82;55.98
11808;BME280;5961;42.640;23.380;2023-03-11T12:46:15;92114.19;;;15.02;57.69
11808;BME280;5961;42.640;23.380;2023-03-11T12:48:44;92105.84;;;14.96;58.38
11808;BME280;5961;42.640;23.380;2023-03-11T12:54:21;92117.44;;;14.90;58.90
11808;BME280;5961;42.640;23.380;2023-03-11T12:56:55;92073.53;;;14.60;60.10
11808;BME280;5961;42.640;23.380;2023-03-11T13:00:10;92105.31;;;14.81;59.23
11808;BME280;5961;42.640;23.380;2023-03-11T13:03:26;92119.84;;;14.80;59.08
11808;BME280;5961;42.640;23.380;2023-03-11T13:06:00;92099.28;;;14.77;58.86
11808;BME280;5961;42.640;23.380;2023-03-11T13:08:35;92118.00;;;14.77;58.97
11808;BME280;5961;42.640;23.380;2023-03-11T13:11:25;92122.53;;;14.80;59.33
11808;BME280;5961;42.640;23.380;2023-03-11T13:14:08;92122.06;;;14.86;59.49